Time;durP1;ratioP1;P1;durP2;ratioP2;P2;SDS_P1;SDS_P2;PMS_P1;PMS_P2;Temp;Humidity;BMP_temperature;BMP_pressure;BME280_temperature;BME280_humidity;BME280_pressure;Samples;Min_cycle;Max_cycle;Signal;HPM_P1;HPM_P2
2021/12/25 00:00:59;;;;;;;22.98;14.05;;;;;;;5.03;100.00;100484.97;5024769;28;20371;-64
2021/12/25 00:03:25;;;;;;;21.42;13.85;;;;;;;5.03;100.00;100482.25;5023834;28;20466;-64
2021/12/25 00:05:54;;;;;;;22.45;14.50;;;;;;;4.94;100.00;100476.97;5023708;28;20025;-64
2021/12/25 00:08:24;;;;;;;22.20;13.90;;;;;;;4.97;100.00;100483.91;5021662;28;20396;-64
2021/12/25 00:10:50;;;;;;;21.77;14.10;;;;;;;4.95;100.00;100481.34;5022676;28;20041;-64
2021/12/25 00:13:18;;;;;;;20.52;12.98;;;;;;;5.11;99.13;100491.03;5023791;28;20337;-64
2021/12/25 00:15:44;;;;;;;20.92;12.73;;;;;;;4.95;100.00;100481.34;5023466;28;20304;-64
2021/12/25 00:18:09;;;;;;;21.42;12.75;;;;;;;5.06;99.48;100468.19;5022656;28;20121;-64
2021/12/25 00:20:35;;;;;;;21.92;14.10;;;;;;;4.93;100.00;100471.72;5023346;28;20104;-64
2021/12/25 00:23:04;;;;;;;21.30;13.60;;;;;;;4.95;100.00;100473.19;5023707;28;20038;-64
2021/12/25 00:25:32;;;;;;;20.17;11.68;;;;;;;5.00;99.84;100466.31;5023473;28;20417;-64
2021/12/25 00:28:05;;;;;;;22.73;13.48;;;;;;;4.87;100.00;100461.66;5024334;28;20026;-65
2021/12/25 00:30:41;;;;;;;22.25;13.88;;;;;;;5.12;98.54;100460.09;5024325;28;20029;-64
2021/12/25 00:33:29;;;;;;;18.50;10.63;;;;;;;5.26;97.06;100465.53;5022716;28;20049;-65
2021/12/25 00:35:51;;;;;;;22.08;13.38;;;;;;;4.85;100.00;100466.44;5026871;28;20034;-64
2021/12/25 00:38:16;;;;;;;23.75;14.15;;;;;;;4.82;100.00;100465.00;5026778;28;20186;-64
2021/12/25 00:40:42;;;;;;;22.25;13.70;;;;;;;4.78;100.00;100457.44;5027051;28;20392;-64
2021/12/25 00:43:07;;;;;;;21.10;13.40;;;;;;;4.79;100.00;100459.09;5028001;28;20036;-65
2021/12/25 00:45:32;;;;;;;20.65;11.88;;;;;;;4.86;99.66;100459.97;5027113;28;20092;-64
2021/12/25 00:47:57;;;;;;;20.58;12.20;;;;;;;4.86;99.25;100468.13;5026420;28;20029;-64
2021/12/25 00:50:23;;;;;;;16.23;8.82;;;;;;;5.09;96.66;100462.38;5026590;28;20021;-64
2021/12/25 00:52:48;;;;;;;20.17;9.65;;;;;;;5.34;94.92;100470.81;5025587;28;20021;-65
2021/12/25 00:55:13;;;;;;;18.33;10.23;;;;;;;5.19;95.69;100476.44;5026961;28;20033;-64
2021/12/25 00:57:39;;;;;;;17.55;9.50;;;;;;;4.97;97.36;100475.72;5027173;28;20048;-64
2021/12/25 01:00:09;;;;;;;20.55;12.00;;;;;;;4.66;99.23;100473.47;5027159;28;20384;-64
2021/12/25 01:02:36;;;;;;;18.13;10.23;;;;;;;4.74;98.57;100472.47;5026300;28;20034;-64
2021/12/25 01:05:02;;;;;;;20.67;12.32;;;;;;;4.68;98.71;100466.81;5027725;28;20037;-64
2021/12/25 01:07:27;;;;;;;22.83;12.32;;;;;;;4.67;99.13;100467.84;5022315;28;20030;-64
2021/12/25 01:09:52;;;;;;;21.17;13.23;;;;;;;4.55;100.00;100466.72;5012614;28;20036;-64
2021/12/25 01:12:18;;;;;;;22.00;11.70;;;;;;;4.53;100.00;100474.25;5025966;28;20047;-65
2021/12/25 01:14:49;;;;;;;23.35;13.65;;;;;;;4.52;100.00;100477.19;5021256;28;20056;-64
2021/12/25 01:20:17;;;;;;;21.75;13.23;;;;;;;4.55;100.00;100474.88;5026673;28;20120;-64
2021/12/25 01:23:10;;;;;;;24.23;16.05;;;;;;;4.68;99.86;100477.69;5006816;28;20044;-64
2021/12/25 01:25:56;;;;;;;28.08;16.58;;;;;;;4.69;99.86;100471.19;5024425;28;20820;-64
2021/12/25 01:29:02;;;;;;;29.73;17.70;;;;;;;4.59;100.00;100475.31;5026440;28;20502;-64
2021/12/25 01:31:25;;;;;;;29.02;18.00;;;;;;;4.69;99.54;100476.63;5026641;28;20037;-64
2021/12/25 01:34:55;;;;;;;29.90;17.88;;;;;;;4.58;100.00;100470.94;5026294;28;20120;-64
2021/12/25 01:49:37;;;;;;;29.80;18.58;;;;;;;4.73;98.42;100473.53;5026163;28;20047;-64
2021/12/25 01:52:04;;;;;;;32.08;18.80;;;;;;;4.84;98.32;100478.38;5025488;28;20025;-64
2021/12/25 01:54:29;;;;;;;31.42;19.08;;;;;;;4.85;97.07;100470.00;5026299;28;20041;-65
2021/12/25 01:56:55;;;;;;;26.30;16.25;;;;;;;5.43;95.36;100461.41;5022474;28;20028;-64
2021/12/25 01:59:20;;;;;;;22.90;12.27;;;;;;;4.88;96.72;100469.63;5014886;28;20045;-64
2021/12/25 02:01:45;;;;;;;26.48;13.75;;;;;;;4.91;97.57;100477.34;5025415;28;20818;-64
2021/12/25 02:04:11;;;;;;;33.10;19.58;;;;;;;4.67;98.32;100467.84;5013046;28;20430;-64
2021/12/25 02:06:37;;;;;;;36.25;21.30;;;;;;;4.68;98.07;100464.06;5007136;28;20037;-64
2021/12/25 02:09:04;;;;;;;22.58;14.60;;;;;;;5.13;95.38;100456.31;5018012;28;20041;-64
2021/12/25 02:11:29;;;;;;;29.00;18.13;;;;;;;4.86;96.30;100457.25;5026295;28;20384;-64
2021/12/25 02:13:55;;;;;;;23.60;15.13;;;;;;;5.26;93.87;100455.50;5020138;28;20026;-64
2021/12/25 02:16:24;;;;;;;24.85;15.82;;;;;;;4.73;96.60;100462.66;5010264;28;20030;-64
2021/12/25 02:19:01;;;;;;;32.60;19.92;;;;;;;4.51;98.50;100462.75;5006655;28;20049;-64
2021/12/25 02:21:34;;;;;;;26.05;15.07;;;;;;;5.10;94.31;100461.31;5006229;28;20026;-64
2021/12/25 02:24:00;;;;;;;31.52;18.98;;;;;;;4.58;96.63;100463.59;5009617;28;20028;-64
2021/12/25 02:26:26;;;;;;;23.60;14.48;;;;;;;4.87;95.13;100465.22;5025606;28;20026;-64
2021/12/25 02:28:53;;;;;;;26.25;16.50;;;;;;;4.85;93.37;100471.88;5023748;28;20084;-64
2021/12/25 02:31:19;;;;;;;21.45;13.82;;;;;;;4.80;93.53;100466.22;5007828;28;20460;-65
2021/12/25 02:33:44;;;;;;;25.88;19.73;;;;;;;5.16;92.14;100465.94;5026026;28;20036;-65
2021/12/25 02:36:12;;;;;;;20.92;13.60;;;;;;;4.34;93.53;100467.66;5025244;28;20123;-64
2021/12/25 02:38:39;;;;;;;24.65;14.38;;;;;;;4.18;94.13;100480.72;5024817;28;20116;-65
2021/12/25 02:41:05;;;;;;;19.13;12.02;;;;;;;4.45;92.35;100471.69;5024782;28;20684;-64
2021/12/25 02:43:31;;;;;;;22.13;13.00;;;;;;;4.00;94.62;100471.16;5026244;28;20036;-65
2021/12/25 02:46:02;;;;;;;21.83;13.65;;;;;;;3.83;96.49;100478.75;5026026;28;20033;-64
2021/12/25 02:48:27;;;;;;;26.50;15.32;;;;;;;3.72;97.36;100481.16;5025192;28;20439;-65
2021/12/25 02:50:52;;;;;;;21.83;12.88;;;;;;;3.86;96.41;100480.25;5024679;28;20032;-64
2021/12/25 02:53:18;;;;;;;18.55;11.23;;;;;;;3.96;95.84;100485.34;5025100;28;20029;-65
2021/12/25 02:55:44;;;;;;;27.90;15.85;;;;;;;3.66;96.77;100484.69;5024553;28;20029;-65
2021/12/25 02:58:10;;;;;;;24.95;15.52;;;;;;;3.62;96.21;100490.47;5025120;28;20480;-64
2021/12/25 03:00:42;;;;;;;29.17;15.10;;;;;;;3.56;96.62;100485.84;5025155;28;20041;-64
2021/12/25 03:03:08;;;;;;;27.17;14.77;;;;;;;3.58;96.32;100489.19;5023120;28;20040;-64
2021/12/25 03:05:34;;;;;;;21.30;12.70;;;;;;;4.00;93.38;100482.03;5024421;28;20116;-64
2021/12/25 03:08:00;;;;;;;29.80;14.40;;;;;;;3.51;95.66;100498.31;5024971;28;20218;-64
2021/12/25 03:10:25;;;;;;;24.10;12.18;;;;;;;3.50;95.37;100489.31;5023509;28;20045;-64
2021/12/25 03:13:05;;;;;;;23.00;11.85;;;;;;;3.81;94.27;100494.44;5025245;28;20037;-64
2021/12/25 03:15:45;;;;;;;26.25;15.88;;;;;;;3.39;96.29;100498.78;5023899;28;20511;-65
2021/12/25 03:18:21;;;;;;;25.70;16.10;;;;;;;3.54;94.75;100504.16;5024939;28;20103;-64
2021/12/25 03:20:48;;;;;;;27.52;16.40;;;;;;;3.34;96.54;100503.13;5024752;28;20029;-64
2021/12/25 03:23:18;;;;;;;27.70;16.63;;;;;;;3.26;97.53;100508.69;5023870;28;20112;-64
2021/12/25 03:25:45;;;;;;;26.48;16.83;;;;;;;3.20;97.31;100502.16;5024328;28;20079;-64
2021/12/25 03:28:10;;;;;;;26.80;16.27;;;;;;;3.21;96.42;100503.00;5024501;28;20033;-65
2021/12/25 03:30:39;;;;;;;25.10;16.33;;;;;;;3.15;96.81;100514.63;5023836;28;20109;-64
2021/12/25 03:33:06;;;;;;;27.05;16.35;;;;;;;3.10;97.24;100510.59;5024816;28;20021;-64
2021/12/25 03:35:33;;;;;;;23.80;18.00;;;;;;;3.89;95.57;100509.72;5020179;28;20063;-64
2021/12/25 03:37:59;;;;;;;24.80;15.27;;;;;;;3.64;90.44;100521.00;5024723;28;20104;-65
2021/12/25 03:40:24;;;;;;;25.05;15.60;;;;;;;3.55;90.58;100516.75;5023551;28;20026;-64
2021/12/25 03:42:49;;;;;;;28.20;17.02;;;;;;;3.04;94.31;100522.22;5024571;28;20128;-64
2021/12/25 03:45:16;;;;;;;27.48;16.00;;;;;;;2.96;94.63;100521.47;5023338;28;20033;-64
2021/12/25 03:47:41;;;;;;;25.70;14.88;;;;;;;2.86;95.97;100519.03;5024743;28;20050;-64
2021/12/25 03:58:24;;;;;;;33.20;19.17;;;;;;;2.71;96.97;100524.47;5007439;28;20468;-64
2021/12/25 04:00:50;;;;;;;24.42;16.80;;;;;;;3.33;94.70;100521.28;5022318;28;20032;-64
2021/12/25 04:03:24;;;;;;;31.20;18.48;;;;;;;2.71;95.92;100524.47;5020184;28;20046;-64
2021/12/25 04:05:50;;;;;;;29.70;18.88;;;;;;;2.79;94.50;100531.69;5023202;28;20647;-64
2021/12/25 04:08:19;;;;;;;30.50;18.42;;;;;;;2.79;93.78;100531.69;5023243;28;20053;-64
2021/12/25 04:10:49;;;;;;;30.63;18.63;;;;;;;2.77;94.71;100536.44;5023570;28;20033;-64
2021/12/25 04:13:16;;;;;;;30.75;19.42;;;;;;;2.60;94.52;100550.19;5023275;28;20116;-64
2021/12/25 04:15:42;;;;;;;31.92;19.00;;;;;;;2.52;94.92;100542.13;5023724;28;20025;-64
2021/12/25 04:18:09;;;;;;;32.70;19.88;;;;;;;2.42;95.38;100552.41;5023585;28;20091;-64
2021/12/25 04:20:35;;;;;;;29.05;17.05;;;;;;;2.53;95.72;100548.41;5022979;28;20018;-64
2021/12/25 04:23:08;;;;;;;33.50;20.15;;;;;;;2.38;94.82;100553.78;5023605;28;20032;-64
2021/12/25 04:25:35;;;;;;;35.08;20.55;;;;;;;2.33;95.67;100562.50;5022941;28;20094;-64
2021/12/25 04:28:18;;;;;;;31.33;18.42;;;;;;;2.59;93.82;100563.94;5024872;28;20129;-64
2021/12/25 05:03:25;;;;;;;28.60;17.27;;;;;;;2.33;92.68;100586.03;5022890;28;20284;-65
2021/12/25 05:05:52;;;;;;;34.63;21.08;;;;;;;2.15;92.47;100590.94;5022800;28;20033;-65
2021/12/25 05:08:18;;;;;;;33.53;20.10;;;;;;;1.99;93.92;100600.88;5022555;28;20025;-64
2021/12/25 05:10:43;;;;;;;26.45;15.38;;;;;;;2.01;92.87;100592.56;5022262;28;20024;-65
2021/12/25 05:13:08;;;;;;;30.00;23.02;;;;;;;2.48;91.99;100589.59;5023594;28;20061;-64
2021/12/25 05:15:34;;;;;;;28.52;20.63;;;;;;;2.67;90.02;100595.53;5011070;28;20068;-64
2021/12/25 05:17:59;;;;;;;29.90;18.45;;;;;;;2.30;91.10;100591.84;5005067;28;20087;-64
2021/12/25 05:20:25;;;;;;;23.98;14.15;;;;;;;2.09;92.17;100595.22;5008732;28;20021;-65
2021/12/25 05:22:50;;;;;;;31.10;17.98;;;;;;;2.07;91.80;100602.69;5025114;28;20060;-64
2021/12/25 05:25:15;;;;;;;25.30;14.38;;;;;;;2.33;90.02;100599.56;5026401;28;20045;-64
2021/12/25 05:27:41;;;;;;;37.08;19.35;;;;;;;1.94;92.41;100600.59;5026880;28;20030;-64
2021/12/25 05:30:07;;;;;;;35.17;21.33;;;;;;;1.65;93.82;100608.56;5026841;28;20079;-64
2021/12/25 05:32:32;;;;;;;29.88;17.30;;;;;;;2.02;92.26;100608.63;5025954;28;20476;-64
2021/12/25 05:34:58;;;;;;;36.05;21.00;;;;;;;1.59;94.69;100606.59;5026722;28;20021;-64
2021/12/25 05:37:23;;;;;;;35.00;21.15;;;;;;;1.48;95.80;100624.06;5008922;28;20034;-64
2021/12/25 05:39:51;;;;;;;31.50;16.85;;;;;;;2.04;91.44;100620.16;5020088;28;20065;-64
2021/12/25 05:42:22;;;;;;;28.35;18.77;;;;;;;2.04;93.63;100628.28;5026071;28;20450;-64
2021/12/25 05:44:48;;;;;;;32.47;19.33;;;;;;;1.62;93.58;100633.28;5024366;28;20071;-64
2021/12/25 05:47:13;;;;;;;30.85;17.77;;;;;;;1.64;92.54;100626.69;5026390;28;20444;-65
2021/12/25 05:49:38;;;;;;;30.63;17.48;;;;;;;1.51;92.64;100621.81;5016613;28;20057;-64
2021/12/25 05:52:04;;;;;;;27.75;17.33;;;;;;;1.45;93.44;100627.13;5024456;28;20041;-65
2021/12/25 05:54:30;;;;;;;31.92;18.63;;;;;;;1.45;92.30;100627.13;5027154;28;20091;-64
2021/12/25 05:56:55;;;;;;;25.17;17.65;;;;;;;2.08;90.31;100626.06;5025646;28;20029;-64
2021/12/25 05:59:20;;;;;;;30.15;16.40;;;;;;;1.13;94.58;100625.41;5026808;28;20597;-65
2021/12/25 06:01:45;;;;;;;30.38;17.77;;;;;;;1.29;94.27;100634.28;5038827;28;20089;-64
2021/12/25 06:04:11;;;;;;;29.27;17.80;;;;;;;1.56;92.28;100632.97;5033754;28;20049;-65
2021/12/25 06:06:36;;;;;;;33.15;18.65;;;;;;;1.34;93.75;100639.19;5024054;28;20083;-64
2021/12/25 06:09:03;;;;;;;27.27;16.48;;;;;;;1.54;93.33;100631.47;5026896;28;20531;-64
2021/12/25 06:11:31;;;;;;;27.73;14.68;;;;;;;1.29;94.64;100644.28;5025070;28;20033;-65
2021/12/25 06:14:05;;;;;;;28.85;21.83;;;;;;;1.86;93.17;100643.97;5034097;28;20067;-64
2021/12/25 06:16:31;;;;;;;31.77;18.08;;;;;;;1.73;92.26;100638.31;5031292;28;20036;-65
2021/12/25 06:18:56;;;;;;;28.80;17.48;;;;;;;1.83;91.20;100638.94;5032626;28;20087;-64
2021/12/25 06:21:21;;;;;;;36.50;25.65;;;;;;;2.09;90.57;100641.28;5026979;28;20120;-64
2021/12/25 06:23:47;;;;;;;25.48;14.85;;;;;;;1.54;92.12;100651.25;5024544;28;20037;-64
2021/12/25 06:26:12;;;;;;;32.78;18.45;;;;;;;1.45;92.90;100646.91;5026664;28;20029;-64
2021/12/25 06:28:37;;;;;;;33.92;17.17;;;;;;;1.49;93.01;100652.81;5025777;28;20432;-65
2021/12/25 06:31:03;;;;;;;33.00;18.63;;;;;;;1.37;93.94;100654.19;5035591;28;20029;-65
2021/12/25 06:33:28;;;;;;;26.02;18.95;;;;;;;1.74;92.85;100651.66;5025326;28;20080;-64
2021/12/25 06:35:53;;;;;;;30.65;19.10;;;;;;;1.00;94.82;100667.34;5034749;28;20503;-65
2021/12/25 06:38:18;;;;;;;28.05;15.60;;;;;;;1.35;92.85;100662.50;5044151;28;20060;-65
2021/12/25 06:40:44;;;;;;;32.13;16.17;;;;;;;0.90;95.73;100660.44;5032904;28;20022;-65
2021/12/25 06:43:09;;;;;;;29.15;17.13;;;;;;;1.32;93.50;100657.47;5025398;28;20025;-65
2021/12/25 06:45:34;;;;;;;29.45;21.27;;;;;;;1.81;92.11;100659.91;5033584;28;20055;-64
2021/12/25 06:48:00;;;;;;;28.50;18.90;;;;;;;1.45;91.87;100660.44;5027229;28;20029;-65
2021/12/25 06:50:25;;;;;;;20.52;13.93;;;;;;;1.37;92.73;100668.59;5026703;28;20437;-65
2021/12/25 06:52:50;;;;;;;30.67;16.55;;;;;;;1.25;92.58;100667.28;5025290;28;20582;-64
2021/12/25 06:55:16;;;;;;;20.77;13.10;;;;;;;1.27;93.17;100674.22;5029440;28;20029;-65
2021/12/25 06:57:53;;;;;;;28.92;16.40;;;;;;;1.34;91.84;100668.09;5045509;28;20021;-64
2021/12/25 07:00:19;;;;;;;31.10;23.02;;;;;;;1.71;90.36;100668.25;5035816;28;20100;-64
2021/12/25 07:02:44;;;;;;;28.95;16.63;;;;;;;1.07;92.16;100682.91;5031734;28;20067;-64
2021/12/25 07:05:10;;;;;;;21.95;14.45;;;;;;;1.13;92.87;100679.50;5029349;28;20644;-65
2021/12/25 07:07:35;;;;;;;20.75;13.23;;;;;;;1.27;92.12;100673.38;5028095;28;20110;-65
2021/12/25 07:10:00;;;;;;;21.20;13.40;;;;;;;1.40;90.92;100678.22;5036653;28;20116;-65
2021/12/25 07:12:27;;;;;;;17.77;12.73;;;;;;;1.17;90.29;100678.97;5025803;28;20025;-65
2021/12/25 07:14:53;;;;;;;19.58;12.02;;;;;;;0.93;91.46;100698.81;5041597;28;20029;-65
2021/12/25 07:17:18;;;;;;;20.65;13.10;;;;;;;0.79;92.77;100707.59;5038781;28;20024;-65
2021/12/25 07:19:43;;;;;;;17.80;14.60;;;;;;;1.42;88.83;100698.69;5027219;28;20472;-65
2021/12/25 07:22:09;;;;;;;16.42;10.07;;;;;;;1.05;89.28;100718.22;5043745;28;20056;-65
2021/12/25 07:24:34;;;;;;;16.85;12.93;;;;;;;1.11;89.77;100708.56;5028532;28;20040;-64
2021/12/25 07:27:03;;;;;;;15.73;11.85;;;;;;;1.03;89.32;100715.69;5024305;28;20124;-64
2021/12/25 07:29:29;;;;;;;14.57;9.75;;;;;;;0.97;88.65;100723.66;5031580;28;20473;-64
2021/12/25 07:31:54;;;;;;;17.45;10.43;;;;;;;0.60;89.41;100716.06;5026037;28;20030;-64
2021/12/25 07:34:20;;;;;;;16.77;11.13;;;;;;;1.00;88.88;100726.84;5024917;28;20132;-64
2021/12/25 07:36:45;;;;;;;14.10;8.80;;;;;;;0.58;88.21;100724.34;5023833;28;20052;-65
2021/12/25 07:39:10;;;;;;;14.57;9.15;;;;;;;0.63;89.99;100730.09;5028888;28;20053;-65
2021/12/25 07:41:35;;;;;;;14.57;10.25;;;;;;;0.89;88.14;100715.53;5044261;28;20100;-65
2021/12/25 07:44:01;;;;;;;15.68;11.50;;;;;;;0.83;88.68;100732.44;5041420;28;20032;-65
2021/12/25 07:46:27;;;;;;;13.43;9.65;;;;;;;0.82;88.26;100728.91;5039356;28;20045;-65
2021/12/25 07:48:52;;;;;;;10.23;8.15;;;;;;;0.59;88.14;100728.72;5024630;28;20025;-65
2021/12/25 07:51:18;;;;;;;14.55;8.80;;;;;;;0.21;90.33;100733.78;5026704;28;20025;-65
2021/12/25 07:53:44;;;;;;;17.20;9.27;;;;;;;0.18;90.33;100733.25;5043656;28;20371;-65
2021/12/25 07:56:10;;;;;;;14.63;9.82;;;;;;;0.13;89.46;100735.59;5031183;28;20464;-65
2021/12/25 07:58:35;;;;;;;13.98;9.70;;;;;;;0.03;90.06;100743.00;5034738;28;20060;-65
2021/12/25 08:01:01;;;;;;;14.00;10.38;;;;;;;0.65;87.50;100754.22;5040107;28;20036;-65
2021/12/25 08:03:26;;;;;;;13.80;9.05;;;;;;;0.18;90.06;100749.47;5026972;28;20124;-65
2021/12/25 08:05:52;;;;;;;18.02;13.63;;;;;;;0.71;87.95;100745.44;5024388;28;20116;-65
2021/12/25 08:08:17;;;;;;;13.60;9.15;;;;;;;0.48;88.20;100750.69;5026502;28;20029;-65
2021/12/25 08:10:44;;;;;;;13.57;8.77;;;;;;;0.23;88.23;100753.34;5044434;28;20026;-65
2021/12/25 08:13:09;;;;;;;15.40;9.63;;;;;;;-0.12;89.95;100767.94;5024047;28;20124;-65
2021/12/25 08:15:35;;;;;;;13.43;8.70;;;;;;;0.39;87.24;100757.94;5027782;28;20133;-65
2021/12/25 08:18:01;;;;;;;14.48;11.38;;;;;;;0.42;86.89;100757.59;5024637;28;20112;-65
2021/12/25 08:20:27;;;;;;;15.25;9.98;;;;;;;0.30;87.08;100760.78;5022802;28;20121;-64
2021/12/25 08:22:52;;;;;;;14.98;10.20;;;;;;;0.05;89.07;100759.88;5025824;28;20029;-65
2021/12/25 08:25:18;;;;;;;14.88;9.73;;;;;;;0.03;88.24;100764.63;5043018;28;20082;-65
2021/12/25 08:27:46;;;;;;;12.63;7.38;;;;;;;0.07;88.68;100761.41;5033192;28;20026;-65
2021/12/25 08:30:15;;;;;;;12.63;8.35;;;;;;;0.07;89.13;100768.69;5043484;28;20096;-65
2021/12/25 08:32:42;;;;;;;15.38;12.27;;;;;;;0.46;86.50;100769.78;5027997;28;20025;-64
2021/12/25 08:35:10;;;;;;;16.90;9.55;;;;;;;-0.22;89.42;100787.97;5023799;28;20025;-65
2021/12/25 08:37:35;;;;;;;15.00;9.97;;;;;;;0.04;87.09;100791.44;5004409;28;20123;-65
2021/12/25 08:40:03;;;;;;;12.90;7.47;;;;;;;0.15;87.19;100780.34;5023651;28;20540;-65
2021/12/25 08:42:28;;;;;;;17.52;11.98;;;;;;;0.48;86.19;100789.34;5023834;28;20397;-65
2021/12/25 08:47:26;;;;;;;14.93;10.25;;;;;;;-0.40;89.60;100791.63;5023446;28;20037;-65
2021/12/25 08:49:52;;;;;;;12.60;8.35;;;;;;;0.07;88.65;100790.28;5024182;28;20099;-65
2021/12/25 08:52:20;;;;;;;13.77;8.05;;;;;;;-0.06;87.76;100802.38;5016601;28;20103;-65
2021/12/25 08:54:48;;;;;;;14.77;10.10;;;;;;;-0.07;87.40;100811.47;5032452;28;20178;-64
2021/12/25 08:57:15;;;;;;;12.15;7.13;;;;;;;-0.26;89.29;100806.34;5028680;28;20738;-64
2021/12/25 08:59:41;;;;;;;16.42;10.15;;;;;;;-0.50;90.02;100803.53;5026925;28;20108;-64
2021/12/25 09:02:10;;;;;;;14.95;10.45;;;;;;;0.33;87.70;100803.69;5027209;28;20587;-64
2021/12/25 09:04:37;;;;;;;15.63;9.95;;;;;;;-0.33;88.04;100819.63;5026970;28;20038;-64
2021/12/25 09:07:03;;;;;;;17.05;10.50;;;;;;;-0.26;88.42;100815.28;5025061;28;20037;-64
2021/12/25 09:09:28;;;;;;;11.95;9.35;;;;;;;0.37;85.44;100813.16;5027350;28;20036;-64
2021/12/25 09:11:53;;;;;;;12.25;9.18;;;;;;;0.39;85.60;100821.94;5026684;28;20033;-65
2021/12/25 09:14:19;;;;;;;17.52;10.43;;;;;;;-0.23;87.13;100833.00;5026122;28;20036;-64
2021/12/25 09:16:44;;;;;;;10.32;7.82;;;;;;;0.17;86.44;100826.09;5025681;28;20029;-64
2021/12/25 09:19:09;;;;;;;13.35;8.55;;;;;;;0.07;86.18;100830.78;5026746;28;20032;-64
2021/12/25 09:21:35;;;;;;;12.38;8.13;;;;;;;0.02;85.81;100823.16;5025954;28;20436;-64
2021/12/25 09:24:00;;;;;;;12.60;9.50;;;;;;;-0.35;87.38;100829.75;5027350;28;20546;-64
2021/12/25 09:26:25;;;;;;;12.50;7.88;;;;;;;-0.35;87.44;100827.06;5024810;28;20041;-64
2021/12/25 09:28:51;;;;;;;15.30;10.50;;;;;;;-0.53;87.67;100829.81;5026811;28;20034;-64
2021/12/25 09:31:17;;;;;;;15.27;10.75;;;;;;;-0.53;88.41;100837.06;5026493;28;20024;-64
2021/12/25 09:33:42;;;;;;;12.57;9.05;;;;;;;0.11;84.87;100824.06;5026873;28;20099;-64
2021/12/25 09:36:08;;;;;;;19.10;10.82;;;;;;;-0.28;86.36;100819.16;5026027;28;20006;-64
2021/12/25 09:38:34;;;;;;;17.40;10.15;;;;;;;-0.45;86.94;100822.78;5026191;28;20112;-64
2021/12/25 09:41:00;;;;;;;14.32;8.55;;;;;;;-0.60;88.28;100831.47;5026630;28;20089;-64
2021/12/25 09:43:26;;;;;;;15.30;8.77;;;;;;;-0.65;88.52;100823.00;5025941;28;20017;-64
2021/12/25 09:45:53;;;;;;;14.93;9.43;;;;;;;-0.20;86.26;100824.59;5026405;28;20039;-64
2021/12/25 09:48:19;;;;;;;11.48;7.93;;;;;;;-0.39;86.69;100830.22;5024856;28;20049;-64
2021/12/25 09:50:44;;;;;;;15.25;10.90;;;;;;;-0.04;85.29;100826.53;5025929;28;20428;-64
2021/12/25 09:53:12;;;;;;;15.02;10.18;;;;;;;-0.26;85.79;100825.22;5025235;28;20029;-64
2021/12/25 09:55:39;;;;;;;14.35;9.45;;;;;;;-0.56;86.38;100834.66;5041231;28;20029;-64
2021/12/25 09:58:05;;;;;;;13.85;10.00;;;;;;;-0.45;87.83;100829.03;5025968;28;20431;-64
2021/12/25 10:00:34;;;;;;;12.10;9.70;;;;;;;0.05;84.77;100824.69;5026663;28;20036;-65
2021/12/25 10:02:59;;;;;;;13.80;8.38;;;;;;;-0.62;87.52;100832.59;5026238;28;20100;-64
2021/12/25 10:05:29;;;;;;;16.52;9.50;;;;;;;-0.44;85.81;100836.09;5025449;28;20034;-64
2021/12/25 10:08:08;;;;;;;14.93;10.38;;;;;;;-0.68;87.20;100852.97;5024652;28;20022;-64
2021/12/25 10:10:48;;;;;;;14.43;9.35;;;;;;;-0.07;84.42;100846.56;5025355;28;20041;-64
2021/12/25 10:13:39;;;;;;;12.55;7.45;;;;;;;-0.47;85.61;100854.44;5025995;28;20044;-64
2021/12/25 10:16:26;;;;;;;16.17;10.38;;;;;;;-0.83;88.20;100858.06;5025274;28;20049;-64
2021/12/25 10:18:53;;;;;;;17.13;10.10;;;;;;;-0.75;87.52;100868.09;5025676;28;20137;-64
2021/12/25 10:21:26;;;;;;;14.20;10.38;;;;;;;-0.81;88.06;100864.19;5024397;28;20026;-64
2021/12/25 10:24:07;;;;;;;15.45;10.15;;;;;;;-0.60;88.32;100858.44;5025845;28;20029;-64
2021/12/25 10:26:35;;;;;;;10.75;7.80;;;;;;;-0.33;85.60;100861.97;5024809;28;20488;-64
2021/12/25 10:29:18;;;;;;;13.53;11.03;;;;;;;0.28;82.74;100849.25;5026148;28;20047;-64
2021/12/25 10:31:43;;;;;;;13.15;8.77;;;;;;;-0.56;85.70;100859.81;5025242;28;20068;-64
2021/12/25 10:34:24;;;;;;;12.43;8.43;;;;;;;-0.44;86.20;100863.09;5025364;28;20116;-64
2021/12/25 10:36:50;;;;;;;12.43;8.57;;;;;;;-0.57;86.26;100871.59;5024675;28;20044;-64
2021/12/25 10:39:18;;;;;;;10.38;6.93;;;;;;;-0.51;86.36;100864.69;5025030;28;20021;-64
2021/12/25 10:41:54;;;;;;;13.13;8.98;;;;;;;-0.58;87.12;100869.91;5023443;28;20026;-64
2021/12/25 10:44:31;;;;;;;11.77;8.27;;;;;;;0.19;83.82;100859.16;5023223;28;20029;-64
2021/12/25 10:47:00;;;;;;;12.40;8.82;;;;;;;0.01;84.73;100861.13;5025510;28;20022;-64
2021/12/25 10:49:28;;;;;;;10.05;6.60;;;;;;;0.01;82.79;100861.13;5024512;28;20365;-64
2021/12/25 10:51:55;;;;;;;12.82;8.05;;;;;;;-0.19;83.84;100853.28;5023807;28;20021;-64
2021/12/25 10:54:45;;;;;;;10.80;6.93;;;;;;;-0.03;83.84;100855.22;5024262;28;20114;-64
2021/12/25 10:57:28;;;;;;;9.65;6.35;;;;;;;0.22;82.50;100848.06;5023846;28;20029;-64
2021/12/25 10:59:53;;;;;;;12.57;6.22;;;;;;;0.21;83.16;100847.22;5028973;28;20431;-64
2021/12/25 11:02:59;;;;;;;9.20;6.03;;;;;;;0.34;80.96;100846.72;5044306;28;20470;-64
2021/12/25 11:05:35;;;;;;;9.05;6.15;;;;;;;-0.07;83.10;100851.13;5013224;28;20275;-64
2021/12/25 11:08:07;;;;;;;8.07;6.10;;;;;;;0.18;81.32;100852.09;5042692;28;20364;-64
2021/12/25 11:10:54;;;;;;;10.82;4.60;;;;;;;0.04;82.27;100852.69;5043296;28;20111;-64
2021/12/25 11:13:27;;;;;;;9.63;6.78;;;;;;;0.05;83.41;100852.56;5044180;28;20029;-64
2021/12/25 11:16:18;;;;;;;9.00;4.90;;;;;;;0.36;83.47;100843.88;5044471;28;20025;-64
2021/12/25 11:19:16;;;;;;;10.75;5.55;;;;;;;0.75;80.76;100838.72;5043817;28;20029;-64
2021/12/25 11:21:44;;;;;;;;;;;;;;;1.13;80.51;100841.78;5043870;28;20364;-64
2021/12/25 11:24:12;;;;;;;;;;;;;;;1.59;77.04;100842.06;5042637;28;19970;-64
2021/12/25 11:26:39;;;;;;;7.43;4.90;;;;;;;2.57;75.21;100837.94;5043813;28;19912;-64
2021/12/25 11:29:11;;;;;;;9.40;4.63;;;;;;;4.17;69.97;100825.06;5043682;28;20061;-64
2021/12/25 11:31:37;;;;;;;7.10;4.35;;;;;;;5.11;67.25;100836.75;5044285;28;20438;-64
2021/12/25 11:34:03;;;;;;;7.35;4.03;;;;;;;4.72;66.12;100839.09;5043509;28;20025;-64
2021/12/25 11:36:28;;;;;;;6.53;3.35;;;;;;;4.31;67.59;100832.38;5043412;28;20308;-64
2021/12/25 11:38:54;;;;;;;6.53;3.72;;;;;;;4.75;64.98;100834.09;5043974;28;20028;-64
2021/12/25 11:41:25;;;;;;;5.50;3.13;;;;;;;4.67;64.36;100828.81;5042768;28;20048;-64
2021/12/25 11:43:51;;;;;;;7.18;3.80;;;;;;;4.38;64.81;100816.97;5028260;28;20101;-64
2021/12/25 11:46:17;;;;;;;6.15;3.58;;;;;;;4.08;64.42;100828.91;5023691;28;20060;-64
2021/12/25 11:48:42;;;;;;;4.60;2.88;;;;;;;4.30;65.87;100825.22;5023120;28;20029;-64
2021/12/25 11:51:27;;;;;;;5.80;3.10;;;;;;;4.13;65.00;100813.72;5022631;28;20079;-64
2021/12/25 11:56:50;;;;;;;5.90;3.33;;;;;;;4.01;65.07;100804.38;5022594;28;20388;-64
2021/12/25 11:59:13;;;;;;;6.18;3.28;;;;;;;3.29;66.58;100810.41;5022844;28;20309;-64
2021/12/25 12:01:44;;;;;;;7.25;4.30;;;;;;;3.21;65.72;100813.22;5023589;28;20503;-64
2021/12/25 12:04:09;;;;;;;5.55;3.45;;;;;;;3.19;65.85;100820.66;5023015;28;20041;-64
2021/12/25 12:06:43;;;;;;;5.33;3.13;;;;;;;3.07;66.08;100812.13;5022659;28;20068;-64
2021/12/25 12:09:10;;;;;;;5.25;3.80;;;;;;;3.41;65.23;100802.69;5022989;28;20045;-64
2021/12/25 12:11:37;;;;;;;5.15;3.30;;;;;;;3.76;64.50;100811.13;5021484;28;20021;-64
2021/12/25 12:14:19;;;;;;;6.55;3.45;;;;;;;3.90;63.47;100818.41;5023356;28;20057;-64
2021/12/25 12:16:50;;;;;;;5.15;3.05;;;;;;;4.11;62.56;100810.38;5023295;28;20353;-64
2021/12/25 12:19:31;;;;;;;4.40;2.60;;;;;;;5.10;61.84;100816.03;5022950;28;20025;-64
2021/12/25 12:22:30;;;;;;;4.50;3.08;;;;;;;5.09;59.93;100810.78;5022603;28;20337;-64
2021/12/25 12:25:22;;;;;;;5.72;3.03;;;;;;;5.36;58.79;100815.41;5022475;28;20156;-64
2021/12/25 12:27:56;;;;;;;3.70;2.60;;;;;;;5.37;57.98;100811.66;5023082;28;20069;-64